Time,TemperatureF,DewpointF,PressureIn,WindDirection,WindDirectionDegrees,WindSpeedMPH,WindSpeedGustMPH,Humidity,HourlyPrecipIn,Conditions,Clouds,dailyrainin,SoftwareType,DateUTC
2013-02-08 00:00:00,47.4,46.0,30.03,South,182,0.0,-999.0,95,-99.99,,,0.16,weatherlink.com 1.10,2013-02-08 06:00:00,
2013-02-08 00:15:00,47.3,46.0,30.03,South,182,0.0,-999.0,94,-99.99,,,0.16,weatherlink.com 1.10,2013-02-08 06:15:00,
2013-02-08 00:30:00,47.3,46.0,30.02,South,182,0.0,-999.0,95,-99.99,,,0.16,weatherlink.com 1.10,2013-02-08 06:30:00,
2013-02-08 00:45:00,47.3,46.0,30.03,South,182,0.0,-999.0,95,-99.99,,,0.16,weatherlink.com 1.10,2013-02-08 06:45:00,
2013-02-08 01:00:00,47.4,46.0,30.03,South,182,0.0,-999.0,95,-99.99,,,0.16,weatherlink.com 1.10,2013-02-08 07:00:00,
2013-02-08 01:15:00,47.2,46.0,30.02,South,182,0.0,-999.0,95,-99.99,,,0.16,weatherlink.com 1.10,2013-02-08 07:15:00,
2013-02-08 01:30:00,47.2,46.0,30.01,South,182,1.0,-999.0,95,-99.99,,,0.16,weatherlink.com 1.10,2013-02-08 07:30:00,
2013-02-08 01:45:00,47.1,46.0,30.01,SE,138,5.0,-999.0,95,-99.99,,,0.16,weatherlink.com 1.10,2013-02-08 07:45:00,
2013-02-08 02:00:00,46.9,46.0,29.99,ESE,113,1.0,-999.0,95,-99.99,,,0.16,weatherlink.com 1.10,2013-02-08 08:00:00,
2013-02-08 02:15:00,46.6,45.0,30.00,SSW,213,3.0,-999.0,95,-99.99,,,0.16,weatherlink.com 1.10,2013-02-08 08:15:00,
2013-02-08 02:30:00,46.6,45.0,30.00,SSW,211,2.0,-999.0,95,-99.99,,,0.16,weatherlink.com 1.10,2013-02-08 08:30:00,
2013-02-08 02:45:00,46.6,45.0,29.99,SE,144,5.0,-999.0,95,-99.99,,,0.16,weatherlink.com 1.10,2013-02-08 08:45:00,
2013-02-08 03:00:00,46.4,45.0,29.98,SE,126,2.0,-999.0,95,-99.99,,,0.16,weatherlink.com 1.10,2013-02-08 09:00:00,
2013-02-08 03:15:00,46.3,45.0,29.99,SE,132,6.0,-999.0,95,-99.99,,,0.16,weatherlink.com 1.10,2013-02-08 09:15:00,
2013-02-08 03:30:00,46.2,45.0,29.99,SSE,155,2.0,-999.0,95,-99.99,,,0.16,weatherlink.com 1.10,2013-02-08 09:30:00,
2013-02-08 03:45:00,46.0,45.0,30.00,South,180,3.0,-999.0,95,-99.99,,,0.16,weatherlink.com 1.10,2013-02-08 09:45:00,
2013-02-08 04:00:00,45.9,45.0,30.00,South,185,2.0,-999.0,95,-99.99,,,0.16,weatherlink.com 1.10,2013-02-08 10:00:00,
2013-02-08 04:15:00,45.7,44.0,30.01,SSW,207,3.0,-999.0,95,-99.99,,,0.16,weatherlink.com 1.10,2013-02-08 10:15:00,
2013-02-08 04:30:00,45.6,45.0,30.01,South,179,1.0,-999.0,96,-99.99,,,0.16,weatherlink.com 1.10,2013-02-08 10:30:00,
2013-02-08 04:45:00,45.7,44.0,30.02,SSW,203,4.0,-999.0,95,-99.99,,,0.16,weatherlink.com 1.10,2013-02-08 10:45:00,
2013-02-08 05:00:00,45.8,45.0,30.02,SSW,203,0.0,-999.0,95,-99.99,,,0.16,weatherlink.com 1.10,2013-02-08 11:00:00,
2013-02-08 05:15:00,46.0,45.0,30.03,SSW,204,6.0,-999.0,96,-99.99,,,0.16,weatherlink.com 1.10,2013-02-08 11:15:00,
2013-02-08 05:30:00,46.1,45.0,30.03,SSW,198,3.0,-999.0,96,-99.99,,,0.16,weatherlink.com 1.10,2013-02-08 11:30:00,
2013-02-08 05:45:00,46.2,45.0,30.02,South,181,5.0,-999.0,96,-99.99,,,0.16,weatherlink.com 1.10,2013-02-08 11:45:00,
2013-02-08 06:00:00,46.3,45.0,30.02,SSE,167,2.0,-999.0,96,-99.99,,,0.16,weatherlink.com 1.10,2013-02-08 12:00:00,
2013-02-08 06:15:00,46.4,45.0,30.03,SSE,167,0.0,-999.0,96,-99.99,,,0.16,weatherlink.com 1.10,2013-02-08 12:15:00,
2013-02-08 06:30:00,46.5,46.0,30.06,WNW,302,0.0,-999.0,96,-99.99,,,0.16,weatherlink.com 1.10,2013-02-08 12:30:00,
2013-02-08 06:45:00,46.5,46.0,30.07,WNW,302,0.0,-999.0,96,-99.99,,,0.17,weatherlink.com 1.10,2013-02-08 12:45:00,
2013-02-08 07:00:00,46.6,46.0,30.07,SSW,201,2.0,-999.0,96,-99.99,,,0.18,weatherlink.com 1.10,2013-02-08 13:00:00,
2013-02-08 07:15:00,46.6,46.0,30.08,SW,224,2.0,-999.0,96,-99.99,,,0.19,weatherlink.com 1.10,2013-02-08 13:15:00,
2013-02-08 07:30:00,46.7,46.0,30.07,SSW,213,2.0,-999.0,96,-99.99,,,0.20,weatherlink.com 1.10,2013-02-08 13:30:00,
2013-02-08 07:45:00,46.8,46.0,30.07,SSW,193,6.0,-999.0,96,-99.99,,,0.20,weatherlink.com 1.10,2013-02-08 13:45:00,
2013-02-08 08:00:00,46.9,46.0,30.05,SSE,158,2.0,-999.0,96,-99.99,,,0.21,weatherlink.com 1.10,2013-02-08 14:00:00,
2013-02-08 08:15:00,47.0,46.0,30.06,South,191,1.0,-999.0,97,-99.99,,,0.22,weatherlink.com 1.10,2013-02-08 14:15:00,
2013-02-08 08:30:00,47.2,46.0,30.07,South,191,2.0,-999.0,97,-99.99,,,0.23,weatherlink.com 1.10,2013-02-08 14:30:00,
2013-02-08 08:45:00,47.5,47.0,30.07,SW,215,4.0,-999.0,97,-99.99,,,0.24,weatherlink.com 1.10,2013-02-08 14:45:00,
2013-02-08 09:00:00,47.9,47.0,30.09,WNW,295,3.0,-999.0,97,-99.99,,,0.24,weatherlink.com 1.10,2013-02-08 15:00:00,
2013-02-08 09:15:00,48.3,48.0,30.10,NW,317,6.0,-999.0,97,-99.99,,,0.25,weatherlink.com 1.10,2013-02-08 15:15:00,
2013-02-08 09:30:00,47.9,47.0,30.11,NW,312,6.0,-999.0,96,-99.99,,,0.26,weatherlink.com 1.10,2013-02-08 15:30:00,
2013-02-08 09:49:00,47.6,47.0,30.11,NNW,334,4.0,-999.0,97,-99.99,,,0.27,weatherlink.com 1.10,2013-02-08 15:49:00,
2013-02-08 10:00:00,47.7,47.0,30.12,NW,310,5.0,-999.0,97,-99.99,,,0.28,weatherlink.com 1.10,2013-02-08 16:00:00,
2013-02-08 10:15:00,48.0,47.0,30.12,NW,319,5.0,-999.0,97,-99.99,,,0.28,weatherlink.com 1.10,2013-02-08 16:15:00,
2013-02-08 10:30:00,47.9,47.0,30.13,NW,316,8.0,-999.0,97,-99.99,,,0.29,weatherlink.com 1.10,2013-02-08 16:30:00,
2013-02-08 10:45:00,48.4,48.0,30.13,NNW,328,7.0,-999.0,97,-99.99,,,0.30,weatherlink.com 1.10,2013-02-08 16:45:00,
2013-02-08 11:01:00,48.4,47.0,30.13,NNW,327,3.0,-999.0,96,-99.99,,,0.30,weatherlink.com 1.10,2013-02-08 17:01:00,
2013-02-08 11:15:00,48.4,47.0,30.14,North,349,8.0,-999.0,96,-99.99,,,0.31,weatherlink.com 1.10,2013-02-08 17:15:00,
2013-02-08 11:30:00,48.4,47.0,30.14,NW,313,6.0,-999.0,96,-99.99,,,0.32,weatherlink.com 1.10,2013-02-08 17:30:00,
2013-02-08 11:45:00,48.7,48.0,30.14,NW,319,4.0,-999.0,96,-99.99,,,0.33,weatherlink.com 1.10,2013-02-08 17:45:00,
2013-02-08 12:00:00,48.8,48.0,30.14,NW,319,5.0,-999.0,95,-99.99,,,0.34,weatherlink.com 1.10,2013-02-08 18:00:00,
2013-02-08 12:16:00,48.8,48.0,30.14,NW,325,9.0,-999.0,95,-99.99,,,0.34,weatherlink.com 1.10,2013-02-08 18:16:00,
2013-02-08 12:31:00,48.7,47.0,30.14,NNW,330,8.0,-999.0,95,-99.99,,,0.00,weatherlink.com 1.10,2013-02-08 18:31:00,
2013-02-08 12:45:00,49.3,47.0,30.14,NNW,344,10.0,-999.0,93,-99.99,,,0.01,weatherlink.com 1.10,2013-02-08 18:45:00,
2013-02-08 13:00:00,49.1,46.0,30.14,North,355,17.0,-999.0,89,-99.99,,,0.01,weatherlink.com 1.10,2013-02-08 19:00:00,
2013-02-08 13:16:00,48.9,45.0,30.15,NNW,348,6.0,-999.0,86,-99.99,,,0.02,weatherlink.com 1.10,2013-02-08 19:16:00,
2013-02-08 13:31:00,49.0,45.0,30.15,NW,325,11.0,-999.0,85,-99.99,,,0.03,weatherlink.com 1.10,2013-02-08 19:31:00,
2013-02-08 13:46:00,49.0,45.0,30.16,NW,319,14.0,-999.0,85,-99.99,,,0.03,weatherlink.com 1.10,2013-02-08 19:46:00,
2013-02-08 14:01:00,48.0,43.0,30.17,NW,325,10.0,-999.0,84,-99.99,,,0.03,weatherlink.com 1.10,2013-02-08 20:01:00,
2013-02-08 14:16:00,48.4,44.0,30.17,North,360,12.0,-999.0,83,-99.99,,,0.04,weatherlink.com 1.10,2013-02-08 20:16:00,
2013-02-08 14:31:00,47.9,42.0,30.17,NNW,330,13.0,-999.0,79,-99.99,,,0.05,weatherlink.com 1.10,2013-02-08 20:31:00,
2013-02-08 14:47:00,47.9,41.0,30.18,NNW,342,10.0,-999.0,76,-99.99,,,0.05,weatherlink.com 1.10,2013-02-08 20:47:00,
2013-02-08 15:01:00,47.1,40.0,30.19,NNW,328,13.0,-999.0,76,-99.99,,,0.05,weatherlink.com 1.10,2013-02-08 21:01:00,
2013-02-08 15:16:00,46.7,40.0,30.19,NNW,329,11.0,-999.0,77,-99.99,,,0.05,weatherlink.com 1.10,2013-02-08 21:16:00,
2013-02-08 15:31:00,46.1,39.0,30.20,NNW,340,8.0,-999.0,76,-99.99,,,0.06,weatherlink.com 1.10,2013-02-08 21:31:00,
2013-02-08 15:46:00,45.3,37.0,30.20,NW,319,10.0,-999.0,74,-99.99,,,0.06,weatherlink.com 1.10,2013-02-08 21:46:00,
2013-02-08 16:01:00,45.2,38.0,30.20,NW,316,11.0,-999.0,75,-99.99,,,0.07,weatherlink.com 1.10,2013-02-08 22:01:00,
2013-02-08 16:16:00,45.1,37.0,30.21,NW,324,14.0,-999.0,74,-99.99,,,0.07,weatherlink.com 1.10,2013-02-08 22:16:00,
2013-02-08 16:31:00,44.3,37.0,30.21,NNW,336,7.0,-999.0,74,-99.99,,,0.07,weatherlink.com 1.10,2013-02-08 22:31:00,
2013-02-08 17:02:00,42.6,36.0,30.23,North,350,12.0,-999.0,77,-99.99,,,0.07,weatherlink.com 1.10,2013-02-08 23:02:00,
2013-02-08 17:16:00,41.7,36.0,30.23,North,355,4.0,-999.0,79,-99.99,,,0.08,weatherlink.com 1.10,2013-02-08 23:16:00,
2013-02-08 17:31:00,40.8,35.0,30.24,North,355,2.0,-999.0,81,-99.99,,,0.08,weatherlink.com 1.10,2013-02-08 23:31:00,
2013-02-08 17:46:00,40.2,35.0,30.24,NNW,327,2.0,-999.0,82,-99.99,,,0.08,weatherlink.com 1.10,2013-02-08 23:46:00,
2013-02-08 18:01:00,39.5,35.0,30.25,NNW,345,2.0,-999.0,83,-99.99,,,0.08,weatherlink.com 1.10,2013-02-09 00:01:00,
2013-02-08 18:16:00,39.1,35.0,30.26,North,360,10.0,-999.0,84,-99.99,,,0.08,weatherlink.com 1.10,2013-02-09 00:16:00,
2013-02-08 18:32:00,38.8,34.0,30.26,NNE,19,7.0,-999.0,84,-99.99,,,0.09,weatherlink.com 1.10,2013-02-09 00:32:00,
2013-02-08 18:47:00,38.2,34.0,30.26,North,355,5.0,-999.0,84,-99.99,,,0.09,weatherlink.com 1.10,2013-02-09 00:47:00,
2013-02-08 19:02:00,38.0,34.0,30.27,North,360,5.0,-999.0,84,-99.99,,,0.09,weatherlink.com 1.10,2013-02-09 01:02:00,
2013-02-08 19:17:00,37.7,33.0,30.28,NW,319,12.0,-999.0,83,-99.99,,,0.09,weatherlink.com 1.10,2013-02-09 01:17:00,
2013-02-08 19:32:00,37.6,33.0,30.30,NNW,332,5.0,-999.0,83,-99.99,,,0.09,weatherlink.com 1.10,2013-02-09 01:32:00,
2013-02-08 19:49:00,37.2,33.0,30.30,North,9,6.0,-999.0,84,-99.99,,,0.09,weatherlink.com 1.10,2013-02-09 01:49:00,
2013-02-08 20:02:00,37.3,33.0,30.31,NNE,22,9.0,-999.0,84,-99.99,,,0.09,weatherlink.com 1.10,2013-02-09 02:02:00,
2013-02-08 20:17:00,37.4,32.0,30.31,NW,323,7.0,-999.0,82,-99.99,,,0.09,weatherlink.com 1.10,2013-02-09 02:17:00,
2013-02-08 20:32:00,37.4,32.0,30.31,NNW,329,8.0,-999.0,82,-99.99,,,0.10,weatherlink.com 1.10,2013-02-09 02:32:00,
2013-02-08 20:47:00,36.9,32.0,30.31,NNW,341,3.0,-999.0,82,-99.99,,,0.10,weatherlink.com 1.10,2013-02-09 02:47:00,
2013-02-08 21:02:00,36.5,32.0,30.30,North,9,3.0,-999.0,84,-99.99,,,0.10,weatherlink.com 1.10,2013-02-09 03:02:00,
2013-02-08 21:17:00,36.1,32.0,30.29,NNE,12,2.0,-999.0,85,-99.99,,,0.10,weatherlink.com 1.10,2013-02-09 03:17:00,
2013-02-08 21:32:00,36.1,32.0,30.27,North,355,4.0,-999.0,85,-99.99,,,0.10,weatherlink.com 1.10,2013-02-09 03:32:00,
2013-02-08 21:47:00,35.8,32.0,30.27,NNE,28,3.0,-999.0,85,-99.99,,,0.10,weatherlink.com 1.10,2013-02-09 03:47:00,
2013-02-08 22:02:00,35.7,32.0,30.27,NE,55,3.0,-999.0,85,-99.99,,,0.10,weatherlink.com 1.10,2013-02-09 04:02:00,
2013-02-08 22:17:00,34.8,31.0,30.28,NNE,30,2.0,-999.0,87,-99.99,,,0.10,weatherlink.com 1.10,2013-02-09 04:17:00,
2013-02-08 22:32:00,35.0,32.0,30.29,North,355,1.0,-999.0,87,-99.99,,,0.10,weatherlink.com 1.10,2013-02-09 04:32:00,
2013-02-08 22:47:00,34.7,31.0,30.30,North,350,0.0,-999.0,87,-99.99,,,0.11,weatherlink.com 1.10,2013-02-09 04:47:00,
2013-02-08 23:02:00,34.5,31.0,30.30,North,350,0.0,-999.0,87,-99.99,,,0.11,weatherlink.com 1.10,2013-02-09 05:02:00,
2013-02-08 23:17:00,34.5,31.0,30.31,NW,326,3.0,-999.0,88,-99.99,,,0.11,weatherlink.com 1.10,2013-02-09 05:17:00,
2013-02-08 23:32:00,34.9,31.0,30.32,NW,321,6.0,-999.0,87,-99.99,,,0.11,weatherlink.com 1.10,2013-02-09 05:32:00,
2013-02-08 23:47:00,35.1,32.0,30.32,NNW,340,2.0,-999.0,87,-99.99,,,0.11,weatherlink.com 1.10,2013-02-09 05:47:00,